Terminal Aerodrome Forecast
Issued by NWS Buffalo, NY

Home | Current Version | Previous Version | Text Only | Print | Product List | Glossary On
Versions: 1 2 3 4 5 6 7 8 9 10 11 12 13 14 15 16 17 18 19 20 21 22 23 24
000
FTUS41 KBUF 272000 AAB
TAFBUF
TAF AMD
KBUF 272003Z 2720/2818 25011G20KT P6SM BKN020
      TEMPO 2720/2722 3SM -SHSN
     FM280100 23007KT P6SM SCT250=

USA.gov is the U.S. government's official web portal to all federal, state and local government web resources and services.